Time;durP1;ratioP1;P1;durP2;ratioP2;P2;SDS_P1;SDS_P2;PMS_P1;PMS_P2;Temp;Humidity;BMP_temperature;BMP_pressure;BME280_temperature;BME280_humidity;BME280_pressure;Samples;Min_cycle;Max_cycle;Signal;HPM_P1;HPM_P2
2023/09/05 00:00:10;;;;;;;9.60;5.03;;;;;;;-145.18;100.00;46677.97;5020349;28;20061;-60
2023/09/05 00:02:41;;;;;;;8.00;5.53;;;;;;;-145.18;100.00;46642.81;5031382;28;20057;-60
2023/09/05 00:05:08;;;;;;;8.23;5.17;;;;;;;-145.18;100.00;46660.41;5018556;28;20049;-60
2023/09/05 00:07:35;;;;;;;6.43;4.97;;;;;;;-145.18;100.00;46638.91;5020524;28;20041;-60
2023/09/05 00:10:03;;;;;;;8.63;5.63;;;;;;;-145.18;100.00;46642.81;5018597;28;20057;-60
2023/09/05 00:12:30;;;;;;;8.50;5.43;;;;;;;-145.18;100.00;46640.88;5023051;28;20108;-60
2023/09/05 00:14:55;;;;;;;9.23;5.37;;;;;;;-145.18;100.00;46640.88;5032941;28;20036;-60
2023/09/05 00:17:21;;;;;;;9.43;5.63;;;;;;;-145.18;100.00;46640.88;5026686;28;20049;-60
2023/09/05 00:19:46;;;;;;;8.53;5.03;;;;;;;-145.18;100.00;46679.94;5020328;28;20079;-60
2023/09/05 00:22:12;;;;;;;8.47;5.17;;;;;;;-145.18;100.00;46677.97;5029323;28;20108;-60
2023/09/05 00:24:38;;;;;;;8.03;5.87;;;;;;;-145.18;100.00;46640.88;5018506;28;20057;-60
2023/09/05 00:27:09;;;;;;;8.97;5.97;;;;;;;-145.18;100.00;46640.88;5022256;28;20057;-60
2023/09/05 00:29:35;;;;;;;7.73;4.97;;;;;;;-145.18;100.00;46679.94;5017476;28;20034;-60
2023/09/05 00:32:02;;;;;;;7.87;5.33;;;;;;;-145.18;100.00;46640.88;5019558;28;20025;-59
2023/09/05 00:34:28;;;;;;;8.03;5.37;;;;;;;-145.18;100.00;46642.81;5024943;28;20037;-60
2023/09/05 00:36:54;;;;;;;10.73;5.03;;;;;;;-145.18;100.00;46642.81;5021241;28;20082;-60
2023/09/05 00:39:19;;;;;;;7.73;4.90;;;;;;;-145.18;100.00;46642.81;5026884;28;20424;-60
2023/09/05 00:41:46;;;;;;;9.77;5.53;;;;;;;-145.18;100.00;46640.88;5018504;28;20022;-60
2023/09/05 00:44:13;;;;;;;6.93;5.10;;;;;;;-145.18;100.00;46677.97;5016999;28;20049;-60
2023/09/05 00:46:44;;;;;;;7.90;5.20;;;;;;;-145.18;100.00;46648.69;5017195;28;20034;-59
2023/09/05 00:49:15;;;;;;;6.93;5.00;;;;;;;-145.18;100.00;46660.41;5020091;28;20389;-60
2023/09/05 00:51:45;;;;;;;7.67;5.53;;;;;;;-145.18;100.00;46640.88;5032389;28;20025;-60
2023/09/05 00:54:12;;;;;;;7.57;5.10;;;;;;;-145.18;100.00;46679.94;5030619;28;20021;-59
2023/09/05 00:56:37;;;;;;;8.13;5.60;;;;;;;-145.18;100.00;46660.41;5034179;28;20082;-64
2023/09/05 00:59:06;;;;;;;10.73;5.03;;;;;;;-145.18;100.00;46677.97;5032288;28;20104;-64
2023/09/05 01:01:31;;;;;;;9.10;5.50;;;;;;;-145.18;100.00;46638.91;5031875;28;20025;-64
2023/09/05 01:03:57;;;;;;;7.70;5.17;;;;;;;-145.18;100.00;46642.81;5030123;28;20479;-64
2023/09/05 01:06:37;;;;;;;10.73;5.37;;;;;;;-145.18;100.00;46660.41;5030630;28;20029;-64
2023/09/05 01:09:16;;;;;;;7.83;5.20;;;;;;;-145.18;100.00;46640.88;5030194;28;20025;-64
2023/09/05 01:11:42;;;;;;;9.37;5.73;;;;;;;-145.18;100.00;46660.41;5031761;28;20021;-64
2023/09/05 01:14:08;;;;;;;7.80;5.43;;;;;;;-145.18;100.00;46660.41;5020923;28;20038;-64
2023/09/05 01:16:33;;;;;;;9.40;5.50;;;;;;;-145.18;100.00;46677.97;5027613;28;20447;-64
2023/09/05 01:19:01;;;;;;;8.63;5.20;;;;;;;-145.18;100.00;46640.88;5026764;28;20040;-64
2023/09/05 01:21:34;;;;;;;7.87;5.47;;;;;;;-145.18;100.00;46677.97;5027291;28;20103;-64
2023/09/05 01:24:16;;;;;;;13.40;6.37;;;;;;;-145.18;100.00;46660.41;5029369;28;20031;-64
2023/09/05 01:26:43;;;;;;;8.00;5.20;;;;;;;-145.18;100.00;46660.41;5024367;28;20126;-64
2023/09/05 01:29:11;;;;;;;6.30;4.63;;;;;;;-145.18;100.00;46677.97;5030891;28;20627;-64
2023/09/05 01:31:38;;;;;;;8.63;5.90;;;;;;;-145.18;100.00;46640.88;5032530;28;20155;-64
2023/09/05 01:34:03;;;;;;;13.13;5.00;;;;;;;-145.18;100.00;46638.91;5032549;28;20095;-64
2023/09/05 01:36:29;;;;;;;8.80;5.40;;;;;;;-145.18;100.00;46660.41;5030763;28;20460;-64
2023/09/05 01:38:55;;;;;;;9.13;5.20;;;;;;;-145.18;100.00;46676.03;5031541;28;20830;-64
2023/09/05 01:41:20;;;;;;;7.20;5.33;;;;;;;-145.18;100.00;46660.41;5032515;28;20100;-64
2023/09/05 01:43:46;;;;;;;7.37;5.60;;;;;;;-145.18;100.00;46660.41;5025431;28;20072;-64
2023/09/05 01:46:11;;;;;;;8.40;5.20;;;;;;;-145.18;100.00;46677.97;5025311;28;20032;-65
2023/09/05 01:48:36;;;;;;;9.67;5.60;;;;;;;-145.18;100.00;46660.41;5021702;28;20079;-64
2023/09/05 01:51:02;;;;;;;10.07;5.80;;;;;;;-145.18;100.00;46660.41;5014291;28;20061;-64
2023/09/05 01:53:27;;;;;;;7.70;5.20;;;;;;;-145.18;100.00;46676.03;5018173;28;20029;-64
2023/09/05 01:55:53;;;;;;;7.17;5.10;;;;;;;-145.18;100.00;46660.41;5032629;28;20048;-64
2023/09/05 01:58:18;;;;;;;6.87;5.00;;;;;;;-145.18;100.00;46660.41;5020089;28;20460;-64
2023/09/05 02:00:43;;;;;;;8.23;5.37;;;;;;;-145.18;100.00;46676.03;5018875;28;20548;-64
2023/09/05 02:03:10;;;;;;;8.73;5.70;;;;;;;-145.18;100.00;46676.03;5031622;28;20540;-66
2023/09/05 02:05:36;;;;;;;7.67;4.77;;;;;;;-145.18;100.00;46660.41;5023975;28;20036;-60
2023/09/05 02:08:01;;;;;;;6.17;4.60;;;;;;;-145.18;100.00;46660.41;5023873;28;20025;-60
2023/09/05 02:10:26;;;;;;;7.73;5.40;;;;;;;-145.18;100.00;46660.41;5025428;28;20505;-60
2023/09/05 02:12:52;;;;;;;7.60;4.73;;;;;;;-145.18;100.00;46638.91;5028332;28;20075;-60
2023/09/05 02:15:17;;;;;;;7.03;4.73;;;;;;;-145.18;100.00;46677.97;5014983;28;20397;-60
2023/09/05 02:17:42;;;;;;;5.90;4.73;;;;;;;-145.18;100.00;46638.91;5014744;28;20132;-60
2023/09/05 02:20:08;;;;;;;8.07;4.87;;;;;;;-145.18;100.00;46638.91;5025757;28;20036;-59
2023/09/05 02:22:34;;;;;;;5.87;4.40;;;;;;;-145.18;100.00;46640.88;5025348;28;20061;-60
2023/09/05 02:25:02;;;;;;;7.87;5.17;;;;;;;-145.18;100.00;46638.91;5024261;28;20029;-60
2023/09/05 02:27:27;;;;;;;6.40;4.87;;;;;;;-145.18;100.00;46638.91;5023598;28;20065;-60
2023/09/05 02:29:58;;;;;;;8.97;4.43;;;;;;;-145.18;100.00;46660.41;5033927;28;20053;-60
2023/09/05 02:32:24;;;;;;;9.43;5.10;;;;;;;-145.18;100.00;46660.41;5018390;28;20037;-60
2023/09/05 02:34:51;;;;;;;6.00;5.07;;;;;;;-145.18;100.00;46660.41;5017018;28;20045;-60
2023/09/05 02:37:16;;;;;;;7.90;5.13;;;;;;;-145.18;100.00;46642.81;5017167;28;20037;-60
2023/09/05 02:39:42;;;;;;;8.13;4.80;;;;;;;-145.18;100.00;46660.41;5001389;28;20083;-60
2023/09/05 02:42:07;;;;;;;9.20;5.33;;;;;;;-145.18;100.00;46642.81;5022272;28;20469;-60
2023/09/05 02:44:33;;;;;;;9.07;5.30;;;;;;;-145.18;100.00;46638.91;5027581;28;20113;-60
2023/09/05 02:46:58;;;;;;;7.53;4.70;;;;;;;-145.18;100.00;46677.97;5022332;28;20045;-60
2023/09/05 02:49:23;;;;;;;7.87;5.00;;;;;;;-145.18;100.00;46676.03;5024337;28;20030;-60
2023/09/05 02:51:49;;;;;;;7.37;5.40;;;;;;;-145.18;100.00;46660.41;5024766;28;20033;-60
2023/09/05 02:54:14;;;;;;;10.07;5.40;;;;;;;-145.18;100.00;46660.41;5022041;28;20425;-59
2023/09/05 02:56:40;;;;;;;7.73;4.80;;;;;;;-145.18;100.00;46677.97;5025878;28;20115;-60
2023/09/05 02:59:05;;;;;;;8.77;4.93;;;;;;;-145.18;100.00;46638.91;5027004;28;20083;-60
2023/09/05 03:01:31;;;;;;;8.37;5.27;;;;;;;-145.18;100.00;46640.88;5016816;28;20030;-60
2023/09/05 03:03:56;;;;;;;9.40;5.23;;;;;;;-145.18;100.00;46640.88;5021575;28;20112;-60
2023/09/05 03:06:22;;;;;;;7.63;5.03;;;;;;;-145.18;100.00;46660.41;5016732;28;20080;-60
2023/09/05 03:08:47;;;;;;;8.07;4.97;;;;;;;-145.18;100.00;46677.97;5013873;28;20512;-60
2023/09/05 03:11:17;;;;;;;6.47;4.57;;;;;;;-145.18;100.00;46660.41;5019558;28;20034;-60
2023/09/05 03:13:43;;;;;;;7.63;4.80;;;;;;;-145.18;100.00;46660.41;5022367;28;20556;-60
2023/09/05 03:16:08;;;;;;;7.47;5.00;;;;;;;-145.18;100.00;46660.41;5018769;28;20028;-60
2023/09/05 03:18:34;;;;;;;7.13;5.17;;;;;;;-145.18;100.00;46677.97;5023816;28;20133;-60
2023/09/05 03:20:59;;;;;;;10.30;6.00;;;;;;;-145.18;100.00;46660.41;5019345;28;20034;-60
2023/09/05 03:23:25;;;;;;;6.97;5.30;;;;;;;-145.18;100.00;46660.41;5015862;28;20033;-60
2023/09/05 03:25:52;;;;;;;8.50;6.00;;;;;;;-145.18;100.00;46660.41;5019579;28;20091;-60
2023/09/05 03:28:18;;;;;;;6.50;5.03;;;;;;;-145.18;100.00;46660.41;5014067;28;20113;-60
2023/09/05 03:30:43;;;;;;;8.13;5.20;;;;;;;-145.18;100.00;46660.41;5017408;28;20104;-60
2023/09/05 03:33:09;;;;;;;9.87;5.70;;;;;;;-145.18;100.00;46660.41;5025557;28;20490;-60
2023/09/05 03:35:35;;;;;;;8.47;6.13;;;;;;;-145.18;100.00;46660.41;5027490;28;20033;-60
2023/09/05 03:38:02;;;;;;;8.30;4.90;;;;;;;-145.18;100.00;46660.41;5031205;28;20025;-60
2023/09/05 03:40:28;;;;;;;7.43;5.27;;;;;;;-145.18;100.00;46660.41;5022827;28;20053;-60
2023/09/05 03:42:53;;;;;;;6.63;4.80;;;;;;;-145.18;100.00;46660.41;5018349;28;20149;-60
2023/09/05 03:45:19;;;;;;;6.50;4.87;;;;;;;-145.18;100.00;46660.41;5018881;28;20034;-59
2023/09/05 03:47:45;;;;;;;6.93;4.87;;;;;;;-145.18;100.00;46660.41;5022859;28;20037;-60
2023/09/05 03:50:10;;;;;;;10.10;5.13;;;;;;;-145.18;100.00;46638.91;5023383;28;20034;-60
2023/09/05 03:52:36;;;;;;;9.37;4.67;;;;;;;-145.18;100.00;46638.91;5028482;28;20044;-60
2023/09/05 03:55:01;;;;;;;7.80;4.70;;;;;;;-145.18;100.00;46660.41;5026782;28;20034;-60
2023/09/05 03:57:27;;;;;;;6.67;4.70;;;;;;;-145.18;100.00;46677.97;5028881;28;20034;-60
2023/09/05 03:59:52;;;;;;;9.87;4.47;;;;;;;-145.18;100.00;46677.97;5021277;28;20034;-59
2023/09/05 04:02:17;;;;;;;8.00;4.90;;;;;;;-145.18;100.00;46638.91;5026018;28;20488;-60
2023/09/05 04:04:43;;;;;;;6.67;4.47;;;;;;;-145.18;100.00;46660.41;5025872;28;20573;-60
2023/09/05 04:07:09;;;;;;;6.97;4.70;;;;;;;-145.18;100.00;46638.91;5030155;28;20027;-60
2023/09/05 04:09:35;;;;;;;10.33;4.97;;;;;;;-145.18;100.00;46640.88;5030641;28;20068;-60
2023/09/05 04:12:00;;;;;;;6.10;4.67;;;;;;;-145.18;100.00;46640.88;5034647;28;20489;-60
2023/09/05 04:14:25;;;;;;;8.37;5.03;;;;;;;-145.18;100.00;46640.88;5033957;28;20033;-59
2023/09/05 04:16:51;;;;;;;9.83;5.10;;;;;;;-145.18;100.00;46638.91;5027876;28;20077;-60
2023/09/05 04:19:16;;;;;;;6.40;4.57;;;;;;;-145.18;100.00;46638.91;5028689;28;20045;-60
2023/09/05 04:21:42;;;;;;;7.77;5.20;;;;;;;-145.18;100.00;46638.91;5025766;28;20082;-60
2023/09/05 04:24:07;;;;;;;7.37;5.13;;;;;;;-145.18;100.00;46677.97;5021548;28;20045;-60
2023/09/05 04:26:37;;;;;;;8.50;4.87;;;;;;;-145.18;100.00;46640.88;5032868;28;20033;-60
2023/09/05 04:29:04;;;;;;;8.63;5.27;;;;;;;-145.18;100.00;46660.41;5031076;28;20029;-60
2023/09/05 04:31:29;;;;;;;7.60;5.13;;;;;;;-145.18;100.00;46660.41;5029873;28;20037;-60
2023/09/05 04:33:55;;;;;;;7.80;5.60;;;;;;;-145.18;100.00;46660.41;5023142;28;20033;-60
2023/09/05 04:36:22;;;;;;;7.83;5.57;;;;;;;-145.18;100.00;46676.03;5019514;28;20026;-60
2023/09/05 04:38:50;;;;;;;11.93;5.77;;;;;;;-145.18;100.00;46636.94;5029382;28;20037;-60
2023/09/05 04:41:15;;;;;;;10.40;5.77;;;;;;;-145.18;100.00;46638.91;5020146;28;20044;-60
2023/09/05 04:43:41;;;;;;;7.27;5.63;;;;;;;-145.18;100.00;46677.97;5025017;28;20041;-60
2023/09/05 04:46:08;;;;;;;8.63;6.03;;;;;;;-145.18;100.00;46636.94;5027583;28;20120;-60
2023/09/05 04:48:34;;;;;;;9.57;6.00;;;;;;;-145.18;100.00;46677.97;5036912;28;20033;-59
2023/09/05 04:51:01;;;;;;;8.27;5.80;;;;;;;-145.18;100.00;46660.41;5031714;28;20374;-60
2023/09/05 04:53:28;;;;;;;7.70;5.40;;;;;;;-145.18;100.00;46660.41;5029884;28;20398;-60
2023/09/05 04:55:56;;;;;;;11.53;5.73;;;;;;;-145.18;100.00;46676.03;5028910;28;20440;-60
2023/09/05 04:58:22;;;;;;;10.53;6.40;;;;;;;-145.18;100.00;46660.41;5031167;28;20030;-60
2023/09/05 05:00:49;;;;;;;16.03;6.43;;;;;;;-145.18;100.00;46636.94;5031422;28;20040;-60
2023/09/05 05:03:15;;;;;;;11.13;5.93;;;;;;;-145.18;100.00;46660.41;5029107;28;20025;-60
2023/09/05 05:05:40;;;;;;;12.93;5.97;;;;;;;-145.18;100.00;46640.88;5024891;28;20513;-60
2023/09/05 05:08:06;;;;;;;8.73;5.97;;;;;;;-145.18;100.00;46660.41;5019799;28;20022;-59
2023/09/05 05:10:33;;;;;;;8.57;5.67;;;;;;;-145.18;100.00;46636.94;5024625;28;20385;-60
2023/09/05 05:12:59;;;;;;;12.70;6.23;;;;;;;-145.18;100.00;46638.91;5021761;28;20079;-60
2023/09/05 05:15:25;;;;;;;10.07;6.20;;;;;;;-145.18;100.00;46638.91;5024718;28;20033;-60
2023/09/05 05:17:50;;;;;;;10.53;6.20;;;;;;;-145.18;100.00;46636.94;5018828;28;20148;-60
2023/09/05 05:20:17;;;;;;;9.50;6.33;;;;;;;-145.18;100.00;46660.41;5031134;28;20099;-60
2023/09/05 05:22:42;;;;;;;12.83;6.70;;;;;;;-145.18;100.00;46638.91;5033304;28;20494;-60
2023/09/05 05:25:08;;;;;;;9.67;5.87;;;;;;;-145.18;100.00;46636.94;5028738;28;20075;-60
2023/09/05 05:27:33;;;;;;;9.87;5.73;;;;;;;-145.18;100.00;46636.94;5029055;28;20029;-60
2023/09/05 05:29:59;;;;;;;12.53;6.63;;;;;;;-145.18;100.00;46638.91;5023622;28;20104;-60
2023/09/05 05:32:24;;;;;;;12.00;5.57;;;;;;;-145.18;100.00;46638.91;5034347;28;20052;-60
2023/09/05 05:34:50;;;;;;;13.67;5.90;;;;;;;-145.18;100.00;46635.00;5033111;28;20507;-60
2023/09/05 05:37:16;;;;;;;11.07;6.10;;;;;;;-145.18;100.00;46636.94;5029434;28;20030;-65
2023/09/05 05:39:42;;;;;;;8.03;5.50;;;;;;;-145.18;100.00;46660.41;5031615;28;20049;-64
2023/09/05 05:42:07;;;;;;;9.30;5.57;;;;;;;-145.18;100.00;46636.94;5030175;28;20068;-65
2023/09/05 05:44:33;;;;;;;7.00;5.57;;;;;;;-145.18;100.00;46638.91;5030661;28;20029;-65
2023/09/05 05:46:59;;;;;;;7.77;5.63;;;;;;;-145.18;100.00;46640.88;5027685;28;20494;-65
2023/09/05 05:49:28;;;;;;;10.97;6.30;;;;;;;-145.18;100.00;46660.41;5028947;28;20025;-65
2023/09/05 05:51:55;;;;;;;7.60;5.83;;;;;;;-145.18;100.00;46638.91;5024670;28;20117;-65
2023/09/05 05:54:21;;;;;;;9.23;5.83;;;;;;;-145.18;100.00;46636.94;5029640;28;20033;-65
2023/09/05 05:56:47;;;;;;;7.63;5.40;;;;;;;-145.18;100.00;46636.94;5025991;28;20543;-65
2023/09/05 05:59:12;;;;;;;6.87;5.43;;;;;;;-145.18;100.00;46636.94;5030146;28;20036;-65
2023/09/05 06:01:38;;;;;;;8.20;5.67;;;;;;;-145.18;100.00;46635.00;5028445;28;20061;-65
2023/09/05 06:04:03;;;;;;;10.03;6.57;;;;;;;-145.18;100.00;46633.06;5003664;28;20080;-64
2023/09/05 06:06:29;;;;;;;9.47;6.63;;;;;;;-145.18;100.00;46642.81;5023444;28;20401;-65
2023/09/05 06:08:55;;;;;;;9.57;5.70;;;;;;;-145.18;100.00;46636.94;5025459;28;20034;-65
2023/09/05 06:11:20;;;;;;;7.97;5.43;;;;;;;-145.18;100.00;46635.00;5025979;28;20087;-65
2023/09/05 06:13:45;;;;;;;7.37;5.30;;;;;;;-145.18;100.00;46635.00;5030996;28;20060;-64
2023/09/05 06:16:11;;;;;;;12.33;5.57;;;;;;;-145.18;100.00;46640.88;5024468;28;20090;-65
2023/09/05 06:18:36;;;;;;;8.97;5.87;;;;;;;-145.18;100.00;46636.94;5021298;28;20050;-65
2023/09/05 06:21:02;;;;;;;7.90;5.57;;;;;;;-145.18;100.00;46642.81;5025598;28;20089;-65
2023/09/05 06:23:27;;;;;;;10.40;5.90;;;;;;;-145.18;100.00;46636.94;5026407;28;20593;-65
2023/09/05 06:25:52;;;;;;;10.87;5.67;;;;;;;-145.18;100.00;46638.91;5026209;28;20083;-65
2023/09/05 06:28:18;;;;;;;10.80;5.70;;;;;;;-145.18;100.00;46640.88;5022111;28;20029;-65
2023/09/05 06:30:43;;;;;;;5.83;4.60;;;;;;;-145.18;100.00;46640.88;5026025;28;20156;-65
2023/09/05 06:33:08;;;;;;;7.03;5.43;;;;;;;-145.18;100.00;46640.88;5027930;28;20057;-65
2023/09/05 06:35:36;;;;;;;9.43;5.43;;;;;;;-145.18;100.00;46644.78;5024067;28;20030;-65
2023/09/05 06:38:02;;;;;;;8.90;5.20;;;;;;;-145.18;100.00;46638.91;5027979;28;20121;-65
2023/09/05 06:40:27;;;;;;;7.53;5.30;;;;;;;-145.18;100.00;46642.81;5026455;28;20030;-65
2023/09/05 06:42:53;;;;;;;11.60;5.77;;;;;;;-145.18;100.00;46640.88;5027590;28;20029;-65
2023/09/05 06:45:19;;;;;;;9.13;5.60;;;;;;;-145.18;100.00;46642.81;5024864;28;20036;-65
2023/09/05 06:47:44;;;;;;;8.90;4.93;;;;;;;-145.18;100.00;46640.88;5030458;28;20485;-65
2023/09/05 06:50:11;;;;;;;9.43;5.60;;;;;;;-145.18;100.00;46642.81;5021454;28;20041;-65
2023/09/05 06:52:36;;;;;;;9.93;5.30;;;;;;;-145.18;100.00;46648.69;5024622;28;20025;-65
2023/09/05 06:55:02;;;;;;;7.30;5.23;;;;;;;-145.18;100.00;46648.69;5021166;28;20040;-65
2023/09/05 06:57:28;;;;;;;8.57;4.60;;;;;;;-145.18;100.00;46648.69;5018915;28;20112;-65
2023/09/05 06:59:53;;;;;;;7.17;4.93;;;;;;;-145.18;100.00;46650.63;5023769;28;20038;-65
2023/09/05 07:02:19;;;;;;;8.77;5.07;;;;;;;-145.18;100.00;46650.63;5015517;28;20044;-65
2023/09/05 07:04:44;;;;;;;9.43;4.63;;;;;;;-145.18;100.00;46648.69;5021519;28;20037;-65
2023/09/05 07:07:10;;;;;;;6.47;4.30;;;;;;;-145.18;100.00;46644.78;5031163;28;20063;-65
2023/09/05 07:09:35;;;;;;;6.63;4.97;;;;;;;-145.18;100.00;46650.63;5020376;28;20446;-65
2023/09/05 07:12:01;;;;;;;9.53;4.80;;;;;;;-145.18;100.00;46650.63;5016478;28;20029;-65
2023/09/05 07:14:26;;;;;;;8.30;4.57;;;;;;;-145.18;100.00;46656.50;5027076;28;20038;-65
2023/09/05 07:16:52;;;;;;;7.17;4.17;;;;;;;-145.18;100.00;46658.44;5014639;28;20117;-65
2023/09/05 07:19:18;;;;;;;6.90;4.20;;;;;;;-145.18;100.00;46658.44;5017857;28;20025;-65
2023/09/05 07:21:44;;;;;;;6.70;4.90;;;;;;;-145.18;100.00;46654.53;5021599;28;20040;-65
2023/09/05 07:24:11;;;;;;;5.83;3.83;;;;;;;-145.18;100.00;46650.63;5030261;28;20033;-65
2023/09/05 07:26:38;;;;;;;6.70;4.17;;;;;;;-145.18;100.00;46662.34;5029756;28;20037;-65
2023/09/05 07:29:05;;;;;;;5.60;4.23;;;;;;;-145.18;100.00;46652.59;5030980;28;20033;-65
2023/09/05 07:31:31;;;;;;;5.83;3.97;;;;;;;-145.18;100.00;46652.59;5026277;28;20048;-65
2023/09/05 07:34:00;;;;;;;6.67;4.03;;;;;;;-145.18;100.00;46668.22;5032510;28;20120;-65
2023/09/05 07:36:27;;;;;;;7.40;4.40;;;;;;;-145.18;100.00;46668.22;5016183;28;20382;-65
2023/09/05 07:38:52;;;;;;;5.77;4.30;;;;;;;-145.18;100.00;46668.22;5016946;28;20030;-65
2023/09/05 07:41:18;;;;;;;10.50;4.40;;;;;;;-145.18;100.00;46666.25;5019552;28;20375;-65
2023/09/05 07:43:43;;;;;;;5.67;3.50;;;;;;;-145.18;100.00;46662.34;5027467;28;20077;-65
2023/09/05 07:46:11;;;;;;;7.77;4.27;;;;;;;-145.18;100.00;46668.22;5031819;28;20037;-65
2023/09/05 07:48:37;;;;;;;6.40;3.50;;;;;;;-145.18;100.00;46672.13;5034546;28;20040;-65
2023/09/05 07:51:04;;;;;;;8.00;3.80;;;;;;;-145.18;100.00;46668.22;5034007;28;20465;-65
2023/09/05 07:53:32;;;;;;;8.60;3.43;;;;;;;-145.18;100.00;46664.31;5034717;28;20108;-65
2023/09/05 07:55:57;;;;;;;6.70;3.20;;;;;;;-145.18;100.00;46652.59;5033224;28;20033;-60
2023/09/05 07:58:23;;;;;;;5.90;3.40;;;;;;;-145.18;100.00;46660.41;5033803;28;20079;-60
2023/09/05 08:00:50;;;;;;;6.70;3.77;;;;;;;-145.18;100.00;46644.78;5017635;28;20030;-61
2023/09/05 08:03:16;;;;;;;6.17;3.27;;;;;;;-145.18;100.00;46642.81;5015949;28;20128;-60
2023/09/05 08:05:41;;;;;;;7.47;3.90;;;;;;;-145.18;100.00;46572.50;5019991;28;20108;-60
2023/09/05 08:08:07;;;;;;;4.83;3.30;;;;;;;-145.18;100.00;46613.50;5033964;28;20033;-61
2023/09/05 08:10:33;;;;;;;7.43;3.57;;;;;;;-145.18;100.00;46621.31;5032514;28;20099;-61
2023/09/05 08:12:59;;;;;;;6.13;3.57;;;;;;;-145.18;100.00;46564.69;5029593;28;20065;-61
2023/09/05 08:15:25;;;;;;;5.10;3.90;;;;;;;-145.18;100.00;46539.28;5029843;28;20098;-61
2023/09/05 08:17:51;;;;;;;5.00;3.10;;;;;;;-145.18;100.00;46539.28;5032069;28;20224;-61
2023/09/05 08:20:17;;;;;;;6.10;3.57;;;;;;;-145.18;100.00;46539.28;5023740;28;20576;-61
2023/09/05 08:22:45;;;;;;;5.67;3.50;;;;;;;-145.18;100.00;46535.38;5030917;28;20029;-61
2023/09/05 08:25:13;;;;;;;3.63;3.00;;;;;;;-145.18;100.00;46537.34;5026752;28;20025;-61
2023/09/05 08:27:39;;;;;;;5.17;3.43;;;;;;;-145.18;100.00;46541.25;5026645;28;20500;-61
2023/09/05 08:30:05;;;;;;;10.63;3.20;;;;;;;-145.18;100.00;46539.28;5025452;28;20030;-61
2023/09/05 08:32:31;;;;;;;4.80;3.20;;;;;;;-145.18;100.00;46539.28;5028741;28;20033;-61
2023/09/05 08:34:56;;;;;;;4.70;3.57;;;;;;;-145.18;100.00;46533.44;5023632;28;20084;-61
2023/09/05 08:37:22;;;;;;;4.03;2.73;;;;;;;-145.18;100.00;46547.09;5019544;28;20478;-61
2023/09/05 08:39:47;;;;;;;6.10;3.20;;;;;;;-145.18;100.00;46537.34;5033883;28;20050;-61
2023/09/05 08:42:13;;;;;;;5.53;2.87;;;;;;;-145.18;100.00;46541.25;5018342;28;20401;-61
2023/09/05 08:44:43;;;;;;;6.40;3.77;;;;;;;-145.18;100.00;46537.34;5023554;28;20406;-61
2023/09/05 08:47:08;;;;;;;4.67;3.67;;;;;;;-145.18;100.00;46537.34;5028597;28;20034;-61
2023/09/05 08:49:34;;;;;;;5.10;3.20;;;;;;;-145.18;100.00;46547.09;5026151;28;20029;-61
2023/09/05 08:52:05;;;;;;;3.73;3.10;;;;;;;-145.18;100.00;46539.28;5020732;28;20553;-61
2023/09/05 08:54:30;;;;;;;4.60;3.10;;;;;;;-145.18;100.00;46539.28;5017185;28;20464;-61
2023/09/05 08:57:03;;;;;;;5.43;2.97;;;;;;;-145.18;100.00;46527.56;5021519;28;20037;-61
2023/09/05 08:59:29;;;;;;;8.23;3.47;;;;;;;-145.18;100.00;46527.56;5017109;28;20038;-61
2023/09/05 09:01:55;;;;;;;5.80;3.40;;;;;;;-145.18;100.00;46531.47;5032059;28;20060;-61
2023/09/05 09:04:21;;;;;;;13.13;3.67;;;;;;;-145.18;100.00;46525.63;5033498;28;20560;-61
2023/09/05 09:06:54;;;;;;;3.83;3.07;;;;;;;-145.18;100.00;46531.47;5029476;28;20078;-66
2023/09/05 09:09:38;;;;;;;5.43;3.17;;;;;;;-145.18;100.00;46543.19;5028097;28;20037;-65
2023/09/05 09:12:04;;;;;;;6.90;3.03;;;;;;;-145.18;100.00;46537.34;5024368;28;20041;-65
2023/09/05 09:14:29;;;;;;;4.73;2.80;;;;;;;-145.18;100.00;46519.75;5028059;28;20041;-66
2023/09/05 09:16:59;;;;;;;5.90;3.57;;;;;;;-145.18;100.00;46547.09;5023037;28;20038;-66
2023/09/05 09:19:24;;;;;;;4.80;3.13;;;;;;;-145.18;100.00;46533.44;5021937;28;20030;-66
2023/09/05 09:21:49;;;;;;;4.03;3.10;;;;;;;-145.18;100.00;46523.66;5015383;28;20401;-65
2023/09/05 09:24:18;;;;;;;4.78;2.92;;;;;;;-145.18;100.00;46535.38;5014467;28;20405;-66
2023/09/05 09:26:44;;;;;;;8.50;3.60;;;;;;;-145.18;100.00;46529.53;5015081;28;20112;-66
2023/09/05 09:29:10;;;;;;;8.37;3.43;;;;;;;-145.18;100.00;46525.63;5021610;28;20171;-66
2023/09/05 09:31:37;;;;;;;8.93;3.90;;;;;;;-145.18;100.00;46521.72;5013334;28;20045;-65
2023/09/05 09:34:03;;;;;;;8.50;3.50;;;;;;;-145.18;100.00;46547.09;5029125;28;20481;-65
2023/09/05 09:36:33;;;;;;;6.03;3.70;;;;;;;-145.18;100.00;46525.63;5029775;28;20037;-66
2023/09/05 09:39:06;;;;;;;8.07;3.50;;;;;;;-145.18;100.00;46529.53;5027109;28;20034;-66
2023/09/05 09:41:32;;;;;;;7.50;3.88;;;;;;;-145.18;100.00;46525.63;5029499;28;20053;-66
2023/09/05 09:43:58;;;;;;;6.82;3.20;;;;;;;-145.18;100.00;46504.13;5025824;28;20176;-66
2023/09/05 09:46:24;;;;;;;9.10;2.80;;;;;;;-145.18;100.00;46545.16;5029567;28;20029;-66
2023/09/05 09:48:52;;;;;;;4.60;2.63;;;;;;;-145.18;100.00;46547.09;5028849;28;20032;-66
2023/09/05 09:51:21;;;;;;;5.97;3.00;;;;;;;-145.18;100.00;46502.19;5028821;28;20564;-66
2023/09/05 09:53:50;;;;;;;6.50;3.05;;;;;;;-145.18;100.00;46508.03;5028682;28;20053;-66
2023/09/05 09:56:19;;;;;;;4.72;2.92;;;;;;;-145.18;100.00;46515.84;5018217;28;20504;-66
2023/09/05 09:58:46;;;;;;;5.18;2.85;;;;;;;-145.18;100.00;46511.94;5028170;28;20065;-66
2023/09/05 10:01:12;;;;;;;4.22;2.90;;;;;;;-145.18;100.00;46584.22;5019724;28;20029;-66
2023/09/05 10:03:39;;;;;;;4.50;2.75;;;;;;;-145.18;100.00;46595.94;5027457;28;20477;-66
2023/09/05 10:06:06;;;;;;;5.95;3.08;;;;;;;-145.18;100.00;46672.13;5021691;28;20401;-66
2023/09/05 10:08:33;;;;;;;7.47;3.83;;;;;;;-145.18;100.00;46984.66;5019307;28;20049;-66
2023/09/05 10:10:59;;;;;;;8.55;3.78;;;;;;;-145.18;100.00;46926.06;5017168;28;20458;-66
2023/09/05 10:13:27;;;;;;;5.50;2.80;;;;;;;-145.18;100.00;46875.28;5026653;28;20100;-66
2023/09/05 10:15:56;;;;;;;6.93;3.80;;;;;;;-145.18;100.00;47090.16;5016257;28;20596;-66
2023/09/05 10:18:22;;;;;;;4.82;3.03;;;;;;;-145.18;100.00;47070.63;5016533;28;20062;-66
2023/09/05 10:20:50;;;;;;;7.45;2.83;;;;;;;-145.18;100.00;47066.72;5020103;28;20033;-66
2023/09/05 10:23:18;;;;;;;5.95;3.08;;;;;;;-145.18;100.00;46838.16;5015128;28;20441;-66
2023/09/05 10:25:45;;;;;;;7.00;3.08;;;;;;;-145.18;100.00;47074.53;5019960;28;20033;-66
2023/09/05 10:28:10;;;;;;;4.72;2.97;;;;;;;-145.18;100.00;47019.81;5015057;28;20041;-66
2023/09/05 10:30:40;;;;;;;6.18;3.30;;;;;;;-145.18;100.00;47047.19;5026189;28;20033;-66
2023/09/05 10:33:09;;;;;;;7.88;3.05;;;;;;;-145.18;100.00;47035.44;5023449;28;20076;-66
2023/09/05 10:35:34;;;;;;;5.10;3.00;;;;;;;-145.18;100.00;47043.28;5027629;28;20116;-66
2023/09/05 10:38:03;;;;;;;8.25;3.25;;;;;;;-145.18;100.00;46996.38;5027725;28;20466;-65
2023/09/05 10:40:34;;;;;;;11.25;3.10;;;;;;;-145.18;100.00;47015.91;5029461;28;20432;-66
2023/09/05 10:43:02;;;;;;;3.90;3.00;;;;;;;-145.18;100.00;47004.19;5022021;28;20034;-66
2023/09/05 10:45:27;;;;;;;4.20;2.70;;;;;;;-145.18;100.00;46996.38;5026237;28;20025;-66
2023/09/05 10:47:58;;;;;;;7.35;3.38;;;;;;;-145.18;100.00;47004.19;5031393;28;20087;-66
2023/09/05 10:50:23;;;;;;;4.22;2.63;;;;;;;-145.18;100.00;46969.03;5030406;28;20442;-66
2023/09/05 10:53:11;;;;;;;5.45;2.42;;;;;;;-145.18;100.00;46957.31;5029471;28;20101;-66
2023/09/05 10:55:44;;;;;;;4.53;2.95;;;;;;;-145.18;100.00;46976.84;5018256;28;20037;-66
2023/09/05 10:58:38;;;;;;;5.55;2.80;;;;;;;-145.18;86.63;46953.41;5031447;28;20461;-66
2023/09/05 11:01:32;;;;;;;3.40;2.28;;;;;;;-145.18;70.31;46957.31;5022375;28;20092;-66
2023/09/05 11:04:00;;;;;;;3.50;2.50;;;;;;;-145.18;66.61;46945.59;5017663;28;20381;-66
2023/09/05 11:06:26;;;;;;;7.20;2.50;;;;;;;-145.18;36.80;46941.69;5031667;28;20435;-66